Time;durP1;ratioP1;P1;durP2;ratioP2;P2;SDS_P1;SDS_P2;PMS_P1;PMS_P2;Temp;Humidity;BMP_temperature;BMP_pressure;BME280_temperature;BME280_humidity;BME280_pressure;Samples;Min_cycle;Max_cycle;Signal;HPM_P1;HPM_P2
2024/01/05 00:01:53;;;;;;;6.80;2.10;;;8.30;99.90;;;;;;4133648;28;20047;-74
2024/01/05 00:03:54;;;;;;;9.32;2.60;;;8.40;99.90;;;;;;4141962;28;20429;-74
2024/01/05 00:05:54;;;;;;;14.95;3.08;;;8.30;99.90;;;;;;4138203;28;20445;-74
2024/01/05 00:07:55;;;;;;;6.45;1.98;;;8.30;99.90;;;;;;4140192;28;20048;-74
2024/01/05 00:09:55;;;;;;;12.00;2.78;;;8.40;99.90;;;;;;4140908;28;20088;-74
2024/01/05 00:11:56;;;;;;;10.27;2.80;;;8.40;99.90;;;;;;4141124;28;20115;-75
2024/01/05 00:13:57;;;;;;;11.38;2.78;;;8.40;99.90;;;;;;4138429;28;20073;-75
2024/01/05 00:15:57;;;;;;;10.25;2.53;;;8.40;99.90;;;;;;4139274;28;20490;-74
2024/01/05 00:17:58;;;;;;;10.55;2.45;;;8.40;99.90;;;;;;4139401;28;20456;-74
2024/01/05 00:19:59;;;;;;;9.57;2.22;;;8.40;99.90;;;;;;4140047;28;20068;-74
2024/01/05 00:22:03;;;;;;;13.82;2.65;;;8.40;99.90;;;;;;4141085;28;20042;-71
2024/01/05 00:24:03;;;;;;;8.95;2.50;;;8.40;99.90;;;;;;4138580;28;20092;-70
2024/01/05 00:26:04;;;;;;;10.32;2.72;;;8.40;99.90;;;;;;4138846;28;20061;-70
2024/01/05 00:28:05;;;;;;;11.05;2.47;;;8.40;99.90;;;;;;4142897;28;20473;-70
2024/01/05 00:30:06;;;;;;;11.90;2.80;;;8.50;99.90;;;;;;4137295;28;20030;-71
2024/01/05 00:32:06;;;;;;;9.73;2.95;;;8.50;99.90;;;;;;4137649;28;20026;-69
2024/01/05 00:34:07;;;;;;;6.57;2.20;;;8.50;99.90;;;;;;4141322;28;20521;-70
2024/01/05 00:36:11;;;;;;;10.68;2.42;;;8.50;99.90;;;;;;4135081;28;20485;-70
2024/01/05 00:38:12;;;;;;;10.43;1.75;;;8.50;99.90;;;;;;4138741;28;20100;-71
2024/01/05 00:40:12;;;;;;;9.95;2.45;;;8.50;99.90;;;;;;4137792;28;20494;-70
2024/01/05 00:42:13;;;;;;;13.80;2.80;;;8.50;99.90;;;;;;4141928;28;20045;-71
2024/01/05 00:44:14;;;;;;;13.13;2.97;;;8.50;99.90;;;;;;4139484;28;20038;-71
2024/01/05 00:46:14;;;;;;;12.27;3.17;;;8.60;99.90;;;;;;4136417;28;20486;-71
2024/01/05 00:48:15;;;;;;;12.52;3.00;;;8.50;99.90;;;;;;4135242;28;20049;-70
2024/01/05 00:50:16;;;;;;;14.05;2.80;;;8.50;99.90;;;;;;4140796;28;20041;-71
2024/01/05 00:52:17;;;;;;;10.10;2.53;;;8.50;99.90;;;;;;4141136;28;20502;-70
2024/01/05 00:54:18;;;;;;;13.37;2.50;;;8.40;99.90;;;;;;4133731;28;20125;-71
2024/01/05 00:56:19;;;;;;;9.57;2.35;;;8.50;99.90;;;;;;4137927;28;20733;-70
2024/01/05 00:58:19;;;;;;;8.48;2.38;;;8.50;99.90;;;;;;4138242;28;20124;-70
2024/01/05 01:00:20;;;;;;;6.47;1.92;;;8.50;99.90;;;;;;4130684;28;21615;-70
2024/01/05 01:02:21;;;;;;;7.00;2.60;;;8.50;99.90;;;;;;4137632;28;20042;-70
2024/01/05 01:04:21;;;;;;;16.17;3.53;;;8.50;99.90;;;;;;4136093;28;21112;-71
2024/01/05 01:06:22;;;;;;;17.05;2.92;;;8.50;99.90;;;;;;4137223;28;20037;-71
2024/01/05 01:08:22;;;;;;;17.15;3.58;;;8.50;99.90;;;;;;4136728;28;20667;-70
2024/01/05 01:10:23;;;;;;;9.07;2.72;;;8.50;99.90;;;;;;4138983;28;21023;-71
2024/01/05 01:12:25;;;;;;;8.90;2.72;;;8.50;99.90;;;;;;4139110;28;20038;-71
2024/01/05 01:14:26;;;;;;;10.85;2.50;;;8.50;99.90;;;;;;4139986;28;20041;-69
2024/01/05 01:16:26;;;;;;;11.80;2.47;;;8.50;99.90;;;;;;4137004;28;20046;-71
2024/01/05 01:18:27;;;;;;;12.50;2.92;;;8.60;99.90;;;;;;4132800;28;21175;-70
2024/01/05 01:20:28;;;;;;;10.13;2.53;;;8.60;99.90;;;;;;4139709;28;20516;-70
2024/01/05 01:22:28;;;;;;;6.60;1.92;;;8.60;99.90;;;;;;4138265;28;20430;-71
2024/01/05 01:24:29;;;;;;;10.10;2.75;;;8.60;99.90;;;;;;4139916;28;20034;-70
2024/01/05 01:26:29;;;;;;;14.85;2.90;;;8.70;99.90;;;;;;4137779;28;20110;-70
2024/01/05 01:28:30;;;;;;;9.82;2.67;;;8.60;99.90;;;;;;4135207;28;20042;-69
2024/01/05 01:30:31;;;;;;;6.97;2.30;;;8.70;99.90;;;;;;4139376;28;20062;-70
2024/01/05 01:32:31;;;;;;;6.75;2.22;;;8.70;99.90;;;;;;4139220;28;20461;-71
2024/01/05 01:34:32;;;;;;;12.13;2.92;;;8.70;99.90;;;;;;4140959;28;20041;-71
2024/01/05 01:36:33;;;;;;;16.90;3.00;;;8.70;99.90;;;;;;4139664;28;20120;-71
2024/01/05 01:38:33;;;;;;;9.63;2.78;;;8.70;99.90;;;;;;4138047;28;20030;-72
2024/01/05 01:40:34;;;;;;;11.70;2.97;;;8.70;99.90;;;;;;4119077;28;20380;-72
2024/01/05 01:42:36;;;;;;;14.20;3.20;;;8.70;99.90;;;;;;4134508;28;20070;-71
2024/01/05 01:44:36;;;;;;;7.95;2.47;;;8.60;99.90;;;;;;4131801;28;20419;-71
2024/01/05 01:46:38;;;;;;;16.65;3.03;;;8.70;99.90;;;;;;4137326;28;20033;-71
2024/01/05 01:48:40;;;;;;;7.72;2.17;;;8.70;99.90;;;;;;4136924;28;20042;-71
2024/01/05 01:50:41;;;;;;;12.65;2.63;;;8.70;99.90;;;;;;4133405;28;20049;-71
2024/01/05 01:52:45;;;;;;;9.90;2.53;;;8.60;99.90;;;;;;4141280;28;20463;-71
2024/01/05 01:54:46;;;;;;;10.10;2.38;;;8.70;99.90;;;;;;4131905;28;20880;-71
2024/01/05 01:56:48;;;;;;;12.00;2.47;;;8.60;99.90;;;;;;4139371;28;20033;-71
2024/01/05 01:58:49;;;;;;;7.20;2.25;;;8.70;99.90;;;;;;4138396;28;20034;-71
2024/01/05 02:00:51;;;;;;;12.50;2.30;;;8.60;99.90;;;;;;4136889;28;20038;-71
2024/01/05 02:02:53;;;;;;;9.93;2.17;;;8.60;99.90;;;;;;4138937;28;20073;-72
2024/01/05 02:04:54;;;;;;;13.60;2.88;;;8.60;99.90;;;;;;4141222;28;20046;-72
2024/01/05 02:06:55;;;;;;;11.02;2.33;;;8.60;99.90;;;;;;4134143;28;20092;-71
2024/01/05 02:08:56;;;;;;;10.63;2.47;;;8.60;99.90;;;;;;4136340;28;20534;-72
2024/01/05 02:10:56;;;;;;;7.35;2.50;;;8.60;99.90;;;;;;4140310;28;20038;-71
2024/01/05 02:12:57;;;;;;;13.68;2.53;;;8.60;99.90;;;;;;4138535;28;20034;-70
2024/01/05 02:14:58;;;;;;;9.00;2.45;;;8.50;99.90;;;;;;4138585;28;20459;-71
2024/01/05 02:16:59;;;;;;;10.00;2.63;;;8.60;99.90;;;;;;4137710;28;20450;-71
2024/01/05 02:19:00;;;;;;;8.27;2.20;;;8.60;99.90;;;;;;4141221;28;20475;-71
2024/01/05 02:21:02;;;;;;;8.23;2.47;;;8.60;99.90;;;;;;4136788;28;20034;-71
2024/01/05 02:23:06;;;;;;;;;;;8.50;99.90;;;;;;4134876;28;20053;-71
2024/01/05 02:25:07;;;;;;;9.15;2.25;;;8.50;99.90;;;;;;4145490;28;20321;-72
2024/01/05 02:27:08;;;;;;;13.05;2.88;;;8.50;99.90;;;;;;4141529;28;20033;-71
2024/01/05 02:29:08;;;;;;;13.43;2.70;;;8.50;99.90;;;;;;4137327;28;20033;-71
2024/01/05 02:31:09;;;;;;;10.05;2.20;;;8.40;99.90;;;;;;4152037;28;20045;-71
2024/01/05 02:33:09;;;;;;;7.40;2.35;;;8.40;99.90;;;;;;4144637;28;20062;-71
2024/01/05 02:35:10;;;;;;;7.22;2.50;;;8.40;99.90;;;;;;4141042;28;20037;-71
2024/01/05 02:37:11;;;;;;;8.35;1.75;;;8.50;99.90;;;;;;4144200;28;20036;-71
2024/01/05 02:39:12;;;;;;;9.45;2.13;;;8.40;99.90;;;;;;4141301;28;20122;-71
2024/01/05 02:41:13;;;;;;;7.55;2.30;;;8.40;99.90;;;;;;4142209;28;20050;-70
2024/01/05 02:43:13;;;;;;;9.98;2.20;;;8.40;99.90;;;;;;4138787;28;20379;-79
2024/01/05 02:45:20;;;;;;;12.90;2.50;;;8.40;99.90;;;;;;4140715;28;20094;-76
2024/01/05 02:47:21;;;;;;;7.70;2.13;;;8.40;99.90;;;;;;4154545;28;20050;-79
2024/01/05 02:49:21;;;;;;;12.07;2.90;;;8.40;99.90;;;;;;4141066;28;20040;-79
2024/01/05 02:51:22;;;;;;;7.03;2.08;;;8.40;99.90;;;;;;4140357;28;20052;-79
2024/01/05 02:53:22;;;;;;;11.70;2.33;;;8.40;99.90;;;;;;4141414;28;20092;-79
2024/01/05 02:55:23;;;;;;;5.68;1.92;;;8.40;99.90;;;;;;4130795;28;20058;-75
2024/01/05 02:57:24;;;;;;;9.63;2.28;;;8.40;99.90;;;;;;4139572;28;20104;-77
2024/01/05 02:59:24;;;;;;;5.72;2.08;;;8.40;99.90;;;;;;4140200;28;20034;-78
2024/01/05 03:01:25;;;;;;;6.00;1.85;;;8.40;99.90;;;;;;4142095;28;20041;-78
2024/01/05 03:03:26;;;;;;;7.20;2.22;;;8.40;99.90;;;;;;4137365;28;20042;-79
2024/01/05 03:05:26;;;;;;;11.20;2.55;;;8.40;99.90;;;;;;4138772;28;20478;-79
2024/01/05 03:07:27;;;;;;;7.70;2.53;;;8.40;99.90;;;;;;4140923;28;20443;-79
2024/01/05 03:09:28;;;;;;;12.18;2.50;;;8.40;99.90;;;;;;4139462;28;20038;-79
2024/01/05 03:11:28;;;;;;;12.00;2.40;;;8.40;99.90;;;;;;4139333;28;20038;-79
2024/01/05 03:13:29;;;;;;;8.68;2.22;;;8.40;99.90;;;;;;4125484;28;20030;-79
2024/01/05 03:15:29;;;;;;;6.15;2.15;;;8.40;99.90;;;;;;4140914;28;20065;-79
2024/01/05 03:17:30;;;;;;;10.73;2.40;;;8.40;99.90;;;;;;4142206;28;20036;-78
2024/01/05 03:19:30;;;;;;;7.88;2.10;;;8.40;99.90;;;;;;4134785;28;20030;-78
2024/01/05 03:21:32;;;;;;;14.10;3.05;;;8.40;99.90;;;;;;4136866;28;20041;-79
2024/01/05 03:23:32;;;;;;;6.65;1.85;;;8.40;99.90;;;;;;4134721;28;20088;-78
2024/01/05 03:25:33;;;;;;;8.20;2.38;;;8.40;99.90;;;;;;4135819;28;20030;-79
2024/01/05 03:27:33;;;;;;;5.93;1.88;;;8.40;99.90;;;;;;4140468;28;20026;-79
2024/01/05 03:29:34;;;;;;;11.75;2.75;;;8.50;99.90;;;;;;4139554;28;20030;-79
2024/01/05 03:31:34;;;;;;;13.82;2.58;;;8.50;99.90;;;;;;4161053;28;20029;-78
2024/01/05 03:33:35;;;;;;;9.65;2.45;;;8.50;99.90;;;;;;4142231;28;20108;-79
2024/01/05 03:35:36;;;;;;;7.38;2.13;;;8.50;99.90;;;;;;4142923;28;20030;-78
2024/01/05 03:37:37;;;;;;;8.82;2.50;;;8.50;99.90;;;;;;4143770;28;20509;-78
2024/01/05 03:39:37;;;;;;;9.15;2.42;;;8.50;99.90;;;;;;4142390;28;20050;-79
2024/01/05 03:41:38;;;;;;;6.57;2.10;;;8.50;99.90;;;;;;4133841;28;20039;-79
2024/01/05 03:43:39;;;;;;;8.70;2.22;;;8.50;99.90;;;;;;4139133;28;20037;-79
2024/01/05 03:45:39;;;;;;;10.20;2.47;;;8.50;99.90;;;;;;4139490;28;20085;-78
2024/01/05 03:47:40;;;;;;;9.98;2.22;;;8.50;99.90;;;;;;4131292;28;20042;-79
2024/01/05 03:49:41;;;;;;;11.48;2.15;;;8.60;99.90;;;;;;4136873;28;20486;-79
2024/01/05 03:51:42;;;;;;;9.43;2.10;;;8.50;99.90;;;;;;4138804;28;20506;-66
2024/01/05 03:53:42;;;;;;;10.55;2.70;;;8.60;99.90;;;;;;4142525;28;20042;-70
2024/01/05 03:55:43;;;;;;;12.05;2.58;;;8.60;99.90;;;;;;4135983;28;20046;-70
2024/01/05 03:57:44;;;;;;;11.63;2.35;;;8.60;99.90;;;;;;4139107;28;20050;-70
2024/01/05 03:59:44;;;;;;;10.90;2.38;;;8.60;99.90;;;;;;4137597;28;20050;-70
2024/01/05 04:01:47;;;;;;;7.55;2.20;;;8.60;99.90;;;;;;4134824;28;20567;-71
2024/01/05 04:03:47;;;;;;;10.05;2.20;;;8.60;99.90;;;;;;4143523;28;20042;-70
2024/01/05 04:05:48;;;;;;;14.13;2.78;;;8.60;99.90;;;;;;4132757;28;20066;-69
2024/01/05 04:07:48;;;;;;;9.95;2.47;;;8.60;99.90;;;;;;4139764;28;20507;-70
2024/01/05 04:09:50;;;;;;;6.47;2.33;;;8.60;99.90;;;;;;4138012;28;20065;-70
2024/01/05 04:11:51;;;;;;;11.75;2.25;;;8.60;99.90;;;;;;4137614;28;20045;-71
2024/01/05 04:13:52;;;;;;;10.95;2.75;;;8.60;99.90;;;;;;4137431;28;20049;-70
2024/01/05 04:15:53;;;;;;;8.85;2.40;;;8.60;99.90;;;;;;4135311;28;20489;-70
2024/01/05 04:17:53;;;;;;;9.32;2.10;;;8.60;99.90;;;;;;4141159;28;20038;-70
2024/01/05 04:19:54;;;;;;;7.55;2.13;;;8.60;99.90;;;;;;4132947;28;20046;-71
2024/01/05 04:21:55;;;;;;;7.95;2.20;;;8.50;99.90;;;;;;4132864;28;20054;-71
2024/01/05 04:23:57;;;;;;;6.90;1.95;;;8.60;99.90;;;;;;4133297;28;20038;-70
2024/01/05 04:25:57;;;;;;;9.77;2.63;;;8.60;99.90;;;;;;4135586;28;20134;-69
2024/01/05 04:27:58;;;;;;;8.00;2.15;;;8.60;99.90;;;;;;4141626;28;20065;-69
2024/01/05 04:29:59;;;;;;;8.43;1.85;;;8.50;99.90;;;;;;4135828;28;20055;-69
2024/01/05 04:31:59;;;;;;;9.95;2.47;;;8.50;99.90;;;;;;4141047;28;20041;-70
2024/01/05 04:34:01;;;;;;;11.95;2.35;;;8.60;99.90;;;;;;4132944;28;20053;-69
2024/01/05 04:36:01;;;;;;;7.13;2.20;;;8.50;99.90;;;;;;4134728;28;21009;-70
2024/01/05 04:38:02;;;;;;;10.57;2.05;;;8.50;99.90;;;;;;4139249;28;20449;-70
2024/01/05 04:40:05;;;;;;;13.07;2.40;;;8.50;99.90;;;;;;4133061;28;20088;-71
2024/01/05 04:42:06;;;;;;;12.75;2.60;;;8.50;99.90;;;;;;4130163;28;20070;-70
2024/01/05 04:44:06;;;;;;;12.75;2.63;;;8.50;99.90;;;;;;4136452;28;20414;-69
2024/01/05 04:46:08;;;;;;;4.85;1.73;;;8.50;99.90;;;;;;4139336;28;20030;-70
2024/01/05 04:48:08;;;;;;;9.90;2.33;;;8.50;99.90;;;;;;4139505;28;20037;-69
2024/01/05 04:50:10;;;;;;;8.82;2.33;;;8.50;99.90;;;;;;4139971;28;20873;-71
2024/01/05 04:52:11;;;;;;;7.03;1.80;;;8.50;99.90;;;;;;4140408;28;20052;-70
2024/01/05 04:54:11;;;;;;;10.90;2.88;;;8.50;99.90;;;;;;4137556;28;20038;-69
2024/01/05 04:56:12;;;;;;;6.53;1.95;;;8.40;99.90;;;;;;4134123;28;20537;-70
2024/01/05 04:58:13;;;;;;;12.25;2.60;;;8.50;99.90;;;;;;4141410;28;20661;-70
2024/01/05 05:00:14;;;;;;;10.18;2.25;;;8.40;99.90;;;;;;4139554;28;20056;-70
2024/01/05 05:02:14;;;;;;;9.30;2.55;;;8.40;99.90;;;;;;4140207;28;20046;-69
2024/01/05 05:04:17;;;;;;;9.02;1.98;;;8.40;99.90;;;;;;4137004;28;20092;-69
2024/01/05 05:06:18;;;;;;;11.25;2.20;;;8.40;99.90;;;;;;4134966;28;20508;-69
2024/01/05 05:08:18;;;;;;;7.18;2.10;;;8.40;99.90;;;;;;4139272;28;20042;-69
2024/01/05 05:10:21;;;;;;;12.15;2.58;;;8.30;99.90;;;;;;4139093;28;20046;-69
2024/01/05 05:12:22;;;;;;;7.65;1.75;;;8.40;99.90;;;;;;4137108;28;20120;-69
2024/01/05 05:14:23;;;;;;;7.00;1.65;;;8.30;99.90;;;;;;4139103;28;20498;-69
2024/01/05 05:16:23;;;;;;;7.18;1.80;;;8.40;99.90;;;;;;4137380;28;20079;-69
2024/01/05 05:18:24;;;;;;;4.97;1.42;;;8.30;99.90;;;;;;4134135;28;20348;-69
2024/01/05 05:20:24;;;;;;;9.93;2.35;;;8.30;99.90;;;;;;4136180;28;20458;-70
2024/01/05 05:22:25;;;;;;;8.63;2.30;;;8.30;99.90;;;;;;4134044;28;20053;-70
2024/01/05 05:24:26;;;;;;;6.30;1.85;;;8.30;99.90;;;;;;4140323;28;20092;-69
2024/01/05 05:26:26;;;;;;;9.05;1.73;;;8.30;99.90;;;;;;4135573;28;20080;-69
2024/01/05 05:28:27;;;;;;;12.27;2.20;;;8.30;99.90;;;;;;4132132;28;20033;-70
2024/01/05 05:30:28;;;;;;;10.95;2.20;;;8.30;99.90;;;;;;4139944;28;20120;-69
2024/01/05 05:32:28;;;;;;;10.30;2.00;;;8.30;99.90;;;;;;4139856;28;20038;-69
2024/01/05 05:34:29;;;;;;;8.23;2.28;;;8.30;99.90;;;;;;4137498;28;20042;-69
2024/01/05 05:36:29;;;;;;;7.22;2.22;;;8.20;99.90;;;;;;4136796;28;20049;-69
2024/01/05 05:38:30;;;;;;;8.73;2.25;;;8.20;99.90;;;;;;4134196;28;20049;-69
2024/01/05 05:40:31;;;;;;;6.88;1.90;;;8.30;99.90;;;;;;4135795;28;20120;-69
2024/01/05 05:42:32;;;;;;;10.43;1.77;;;8.30;99.90;;;;;;4133593;28;20042;-70
2024/01/05 05:44:32;;;;;;;6.75;2.35;;;8.20;99.90;;;;;;4134694;28;20107;-69
2024/01/05 05:46:33;;;;;;;6.50;2.10;;;8.30;99.90;;;;;;4140288;28;20034;-69
2024/01/05 05:48:33;;;;;;;12.20;2.35;;;8.30;99.90;;;;;;4143263;28;20111;-69
2024/01/05 05:50:34;;;;;;;4.55;1.85;;;8.30;99.90;;;;;;4138965;28;20073;-69
2024/01/05 05:52:34;;;;;;;9.20;2.22;;;8.30;99.90;;;;;;4141477;28;20425;-70
2024/01/05 05:54:35;;;;;;;8.50;1.85;;;8.30;99.90;;;;;;4143267;28;20092;-69
2024/01/05 05:56:36;;;;;;;9.55;2.33;;;8.30;99.90;;;;;;4135599;28;20096;-70
2024/01/05 05:58:36;;;;;;;8.00;1.95;;;8.30;99.90;;;;;;4143153;28;20042;-69
2024/01/05 06:00:37;;;;;;;6.68;2.10;;;8.30;99.90;;;;;;4139514;28;20158;-70
2024/01/05 06:02:38;;;;;;;10.77;1.98;;;8.40;99.90;;;;;;4140070;28;20037;-69
2024/01/05 06:04:39;;;;;;;11.32;2.20;;;8.40;99.90;;;;;;4147788;28;20281;-69
2024/01/05 06:06:39;;;;;;;5.75;1.95;;;8.40;99.90;;;;;;4135281;28;20505;-69
2024/01/05 06:08:40;;;;;;;5.65;1.77;;;8.40;99.90;;;;;;4137051;28;20122;-69
2024/01/05 06:10:40;;;;;;;8.52;2.03;;;8.40;99.90;;;;;;4150692;28;20414;-69
2024/01/05 06:12:41;;;;;;;8.77;2.08;;;8.40;99.90;;;;;;4144774;28;20582;-65
2024/01/05 06:14:42;;;;;;;7.30;1.92;;;8.40;99.90;;;;;;4144102;28;20117;-65
2024/01/05 06:16:42;;;;;;;7.40;1.98;;;8.40;99.90;;;;;;4141540;28;20038;-65
2024/01/05 06:18:43;;;;;;;6.60;1.83;;;8.50;99.90;;;;;;4141472;28;20455;-65
2024/01/05 06:20:44;;;;;;;4.82;1.83;;;8.50;99.90;;;;;;4138505;28;20030;-65
2024/01/05 06:22:44;;;;;;;6.32;2.03;;;8.50;99.90;;;;;;4140993;28;20049;-65
2024/01/05 06:24:46;;;;;;;7.22;1.80;;;8.50;99.90;;;;;;4137520;28;20154;-65
2024/01/05 06:26:46;;;;;;;6.90;2.03;;;8.60;99.90;;;;;;4134543;28;20045;-65
2024/01/05 06:28:47;;;;;;;5.28;1.35;;;8.60;99.90;;;;;;4141925;28;20441;-65
2024/01/05 06:30:47;;;;;;;9.52;1.92;;;8.60;99.90;;;;;;4124633;28;20121;-65
2024/01/05 06:32:48;;;;;;;5.88;1.60;;;8.60;99.90;;;;;;4140002;28;20042;-66
2024/01/05 06:34:49;;;;;;;7.22;2.00;;;8.60;99.90;;;;;;4136632;28;20504;-66
2024/01/05 06:36:49;;;;;;;4.68;1.65;;;8.60;99.90;;;;;;4136304;28;20513;-65
2024/01/05 06:38:50;;;;;;;8.88;2.05;;;8.60;99.90;;;;;;4139258;28;20038;-65
2024/01/05 06:40:50;;;;;;;5.53;1.70;;;8.60;99.90;;;;;;4141585;28;20038;-65
2024/01/05 06:42:51;;;;;;;7.43;1.95;;;8.70;99.90;;;;;;4143318;28;20081;-65
2024/01/05 06:44:51;;;;;;;11.07;2.20;;;8.70;99.90;;;;;;4144607;28;20577;-65
2024/01/05 06:46:52;;;;;;;7.18;1.80;;;8.70;99.90;;;;;;4137211;28;20039;-65
2024/01/05 06:48:55;;;;;;;7.15;1.60;;;8.70;99.90;;;;;;4141778;28;20050;-65
2024/01/05 06:50:56;;;;;;;;;;;8.70;99.90;;;;;;4145106;28;20115;-67
2024/01/05 06:52:56;;;;;;;7.15;1.95;;;8.70;99.90;;;;;;4137197;28;19914;-68
2024/01/05 06:54:57;;;;;;;5.45;1.80;;;8.70;99.90;;;;;;4146176;28;20221;-66
2024/01/05 06:56:57;;;;;;;7.30;1.70;;;8.70;99.90;;;;;;4146587;28;20042;-65
2024/01/05 06:58:59;;;;;;;4.82;1.83;;;8.70;99.90;;;;;;4148344;28;20089;-66
2024/01/05 07:01:01;;;;;;;7.28;1.52;;;8.70;99.90;;;;;;4147797;28;20038;-65
2024/01/05 07:03:02;;;;;;;4.70;1.30;;;8.80;99.90;;;;;;4148006;28;20041;-65
2024/01/05 07:05:03;;;;;;;6.40;1.58;;;8.80;99.90;;;;;;4147846;28;20395;-66
2024/01/05 07:07:04;;;;;;;6.07;1.40;;;8.80;99.90;;;;;;4147700;28;20038;-65
2024/01/05 07:09:04;;;;;;;9.52;2.15;;;8.80;99.90;;;;;;4148063;28;20073;-65
2024/01/05 07:11:05;;;;;;;8.70;2.03;;;8.80;99.90;;;;;;4162206;28;20103;-65
2024/01/05 07:13:06;;;;;;;6.57;1.65;;;8.80;99.90;;;;;;4148202;28;20496;-65
2024/01/05 07:15:08;;;;;;;9.95;1.83;;;8.80;99.90;;;;;;4147679;28;20108;-66
2024/01/05 07:17:08;;;;;;;7.00;1.73;;;8.80;99.90;;;;;;4147590;28;20561;-65
2024/01/05 07:19:09;;;;;;;4.60;1.40;;;8.80;99.90;;;;;;4138495;28;20041;-65
2024/01/05 07:21:09;;;;;;;5.25;1.60;;;8.80;99.90;;;;;;4128816;28;20046;-65
2024/01/05 07:23:10;;;;;;;5.00;1.58;;;8.80;99.90;;;;;;4141910;28;20042;-69
2024/01/05 07:25:11;;;;;;;3.95;1.13;;;8.80;99.90;;;;;;4136491;28;20111;-71
2024/01/05 07:27:11;;;;;;;4.28;1.33;;;8.80;99.90;;;;;;4142148;28;20486;-69
2024/01/05 07:29:14;;;;;;;3.75;1.20;;;8.80;99.90;;;;;;4140947;28;20037;-69
2024/01/05 07:31:14;;;;;;;6.47;1.50;;;8.80;99.90;;;;;;4135884;28;20046;-69
2024/01/05 07:33:15;;;;;;;4.68;1.20;;;8.80;99.90;;;;;;4133244;28;20551;-69
2024/01/05 07:35:15;;;;;;;4.00;1.65;;;8.80;99.90;;;;;;4132131;28;20251;-70
2024/01/05 07:37:17;;;;;;;6.03;1.35;;;8.80;99.90;;;;;;4137102;28;20053;-69
2024/01/05 07:39:17;;;;;;;2.75;1.33;;;8.80;99.90;;;;;;4141524;28;20482;-69
2024/01/05 07:41:18;;;;;;;2.53;1.10;;;8.80;99.90;;;;;;4136923;28;20089;-69
2024/01/05 07:43:19;;;;;;;5.13;1.10;;;8.80;99.90;;;;;;4134638;28;20038;-71
2024/01/05 07:45:19;;;;;;;3.75;1.30;;;8.90;99.90;;;;;;4133906;28;20378;-70
2024/01/05 07:47:23;;;;;;;3.65;1.60;;;8.90;99.90;;;;;;4139245;28;20026;-70
2024/01/05 07:49:25;;;;;;;4.45;1.35;;;8.90;99.90;;;;;;4136925;28;20037;-70
2024/01/05 07:51:26;;;;;;;2.30;0.93;;;8.90;99.90;;;;;;4134720;28;20042;-69
2024/01/05 07:53:27;;;;;;;2.15;0.90;;;8.90;99.90;;;;;;4133896;28;20040;-70
2024/01/05 07:55:27;;;;;;;1.33;0.80;;;8.90;99.90;;;;;;4133966;28;20046;-70
2024/01/05 07:57:28;;;;;;;2.38;1.23;;;8.90;99.90;;;;;;4127966;28;20034;-70
2024/01/05 07:59:29;;;;;;;1.92;0.60;;;8.90;99.90;;;;;;4140148;28;20494;-70
2024/01/05 08:01:29;;;;;;;2.75;0.60;;;8.90;99.90;;;;;;4136768;28;20046;-70
2024/01/05 08:03:30;;;;;;;5.25;0.60;;;8.90;99.90;;;;;;4138834;28;20030;-70
2024/01/05 08:05:31;;;;;;;1.08;0.47;;;9.00;99.90;;;;;;4138379;28;20034;-68
2024/01/05 08:07:32;;;;;;;4.13;0.60;;;9.00;99.90;;;;;;4125947;28;20066;-69
2024/01/05 08:09:32;;;;;;;0.75;0.43;;;8.90;99.90;;;;;;4125990;28;20532;-69
2024/01/05 08:11:33;;;;;;;0.80;0.30;;;8.90;99.90;;;;;;4146459;28;20045;-69
2024/01/05 08:13:33;;;;;;;1.65;0.60;;;8.90;99.90;;;;;;4138052;28;20030;-69
2024/01/05 08:15:34;;;;;;;1.45;0.43;;;8.90;99.90;;;;;;4134157;28;20033;-69
2024/01/05 08:17:34;;;;;;;0.80;0.40;;;8.90;99.90;;;;;;4134061;28;20038;-69
2024/01/05 08:19:35;;;;;;;0.88;0.43;;;9.00;99.90;;;;;;4134535;28;20043;-66
2024/01/05 08:21:36;;;;;;;1.42;0.32;;;8.90;99.90;;;;;;4136750;28;20034;-66
2024/01/05 08:23:36;;;;;;;3.00;0.57;;;9.00;99.90;;;;;;4132725;28;20030;-65
2024/01/05 08:25:39;;;;;;;3.50;0.70;;;9.00;99.90;;;;;;4136134;28;20042;-66
2024/01/05 08:27:40;;;;;;;0.93;0.45;;;9.00;99.90;;;;;;4138939;28;20048;-66
2024/01/05 08:29:41;;;;;;;0.85;0.40;;;9.00;99.90;;;;;;4136851;28;20099;-66
2024/01/05 08:31:41;;;;;;;0.77;0.30;;;9.00;99.90;;;;;;4140094;28;20726;-73
2024/01/05 08:33:42;;;;;;;3.58;0.40;;;9.00;99.90;;;;;;4141332;28;20450;-72
2024/01/05 08:35:43;;;;;;;4.80;0.70;;;8.90;99.90;;;;;;4137553;28;20065;-71
2024/01/05 08:37:43;;;;;;;1.00;0.40;;;8.90;99.90;;;;;;4138224;28;20045;-72
2024/01/05 08:39:44;;;;;;;1.27;0.50;;;8.90;99.90;;;;;;4152624;28;20033;-71
2024/01/05 08:41:45;;;;;;;0.88;0.38;;;8.90;99.90;;;;;;4139805;28;20057;-71
2024/01/05 08:43:45;;;;;;;0.77;0.28;;;8.90;99.90;;;;;;4139696;28;20034;-72
2024/01/05 08:45:46;;;;;;;0.90;0.35;;;9.00;99.90;;;;;;4135167;28;21879;-72
2024/01/05 08:47:46;;;;;;;1.75;0.43;;;8.90;99.90;;;;;;4137413;28;20333;-72
2024/01/05 08:49:47;;;;;;;0.68;0.40;;;8.90;99.90;;;;;;4138638;28;20042;-71
2024/01/05 08:51:48;;;;;;;4.28;0.60;;;8.90;99.90;;;;;;4137695;28;20084;-72
2024/01/05 08:53:48;;;;;;;1.08;0.45;;;8.90;99.90;;;;;;4130504;28;20045;-73
2024/01/05 08:55:49;;;;;;;1.45;0.40;;;8.90;99.90;;;;;;4124180;28;20487;-72
2024/01/05 08:57:49;;;;;;;1.75;0.40;;;8.90;99.90;;;;;;4139926;28;20057;-72
2024/01/05 08:59:50;;;;;;;1.95;0.45;;;8.90;99.90;;;;;;4138609;28;20510;-72
2024/01/05 09:01:51;;;;;;;0.30;0.20;;;8.90;99.90;;;;;;4136328;28;20359;-72
2024/01/05 09:03:52;;;;;;;0.45;0.20;;;9.00;99.90;;;;;;4135260;28;20061;-71
2024/01/05 09:05:52;;;;;;;1.70;0.32;;;8.90;99.90;;;;;;4134106;28;20051;-72
2024/01/05 09:07:53;;;;;;;0.70;0.30;;;8.90;99.90;;;;;;4139584;28;20041;-72
2024/01/05 09:09:53;;;;;;;1.55;0.45;;;9.00;99.90;;;;;;4138156;28;20041;-72
2024/01/05 09:11:54;;;;;;;0.57;0.38;;;8.90;99.90;;;;;;4138924;28;20071;-72
2024/01/05 09:13:55;;;;;;;1.05;0.40;;;8.90;99.90;;;;;;4140380;28;20034;-72
2024/01/05 09:15:55;;;;;;;2.72;0.50;;;8.90;99.90;;;;;;4136862;28;20072;-71
2024/01/05 09:17:56;;;;;;;1.55;0.43;;;8.90;99.90;;;;;;4139759;28;20037;-71
2024/01/05 09:19:56;;;;;;;1.42;0.35;;;8.90;99.90;;;;;;4139833;28;20144;-71
2024/01/05 09:21:59;;;;;;;1.67;0.40;;;8.90;99.90;;;;;;4139982;28;20085;-72
2024/01/05 09:23:59;;;;;;;;;;;8.90;99.90;;;;;;4139719;28;20072;-72
2024/01/05 09:26:00;;;;;;;1.67;0.40;;;8.90;99.90;;;;;;4137503;28;19913;-72
2024/01/05 09:28:01;;;;;;;0.70;0.40;;;8.90;99.90;;;;;;4140700;28;20081;-73
2024/01/05 09:30:03;;;;;;;0.47;0.10;;;8.90;99.90;;;;;;4138325;28;20521;-72
2024/01/05 09:32:04;;;;;;;0.28;0.20;;;8.90;99.90;;;;;;4137818;28;20572;-72
2024/01/05 09:34:04;;;;;;;1.00;0.50;;;8.90;99.90;;;;;;4137127;28;20069;-72
2024/01/05 09:36:05;;;;;;;1.17;0.40;;;8.90;99.90;;;;;;4149971;28;20065;-72
2024/01/05 09:38:06;;;;;;;0.98;0.25;;;8.90;99.90;;;;;;4140820;28;20068;-73
2024/01/05 09:40:10;;;;;;;0.57;0.20;;;8.90;99.90;;;;;;4136125;28;20529;-74
2024/01/05 09:42:10;;;;;;;1.92;0.20;;;8.80;99.90;;;;;;4138550;28;20048;-66
2024/01/05 09:44:12;;;;;;;2.15;0.55;;;8.90;99.90;;;;;;4137785;28;20588;-65
2024/01/05 09:46:13;;;;;;;2.10;0.50;;;8.80;99.90;;;;;;4136884;28;20033;-65
2024/01/05 09:48:14;;;;;;;0.63;0.35;;;8.80;99.90;;;;;;4137184;28;20546;-65
2024/01/05 09:50:16;;;;;;;0.50;0.25;;;8.80;99.90;;;;;;4137704;28;20058;-66
2024/01/05 09:52:20;;;;;;;1.40;0.60;;;8.80;99.90;;;;;;4133688;28;20085;-65
2024/01/05 09:54:20;;;;;;;2.60;0.30;;;8.80;99.90;;;;;;4138496;28;20042;-65
2024/01/05 09:56:25;;;;;;;3.67;0.45;;;8.80;99.90;;;;;;4136557;28;20505;-67
2024/01/05 09:58:26;;;;;;;1.98;0.30;;;8.80;99.90;;;;;;4132090;28;20600;-66
2024/01/05 10:00:28;;;;;;;0.93;0.32;;;8.80;99.90;;;;;;4135989;28;20034;-65
2024/01/05 10:02:39;;;;;;;0.85;0.52;;;8.80;99.90;;;;;;4134787;28;20038;-67
2024/01/05 10:04:41;;;;;;;1.70;0.40;;;8.80;99.90;;;;;;4139676;28;20041;-66
2024/01/05 10:06:41;;;;;;;2.70;0.45;;;8.80;99.90;;;;;;4134784;28;20446;-65
2024/01/05 10:08:42;;;;;;;1.00;0.52;;;8.80;99.90;;;;;;4132504;28;20041;-65
2024/01/05 10:10:47;;;;;;;1.88;0.47;;;8.80;99.90;;;;;;4139329;28;20038;-65
2024/01/05 10:12:47;;;;;;;2.22;0.60;;;8.90;99.90;;;;;;4136841;28;20042;-65
2024/01/05 10:14:48;;;;;;;1.52;0.55;;;8.90;99.90;;;;;;4131980;28;20465;-65
2024/01/05 10:16:49;;;;;;;0.82;0.50;;;8.90;99.90;;;;;;4133664;28;20045;-66
2024/01/05 10:18:50;;;;;;;0.70;0.60;;;8.90;99.90;;;;;;4135841;28;20101;-66
2024/01/05 10:20:51;;;;;;;2.10;0.60;;;8.90;99.90;;;;;;4134265;28;20042;-66
2024/01/05 10:22:52;;;;;;;1.95;0.52;;;8.90;99.90;;;;;;4138776;28;20409;-67
2024/01/05 10:24:52;;;;;;;1.40;0.50;;;8.80;99.90;;;;;;4136390;28;20129;-67
2024/01/05 10:27:09;;;;;;;2.03;0.65;;;8.90;99.90;;;;;;4137072;28;20057;-66
2024/01/05 10:29:16;;;;;;;2.00;0.70;;;8.80;99.90;;;;;;4134293;28;20049;-65
2024/01/05 10:31:17;;;;;;;1.63;0.50;;;8.80;99.90;;;;;;4140972;28;20029;-65
2024/01/05 10:33:19;;;;;;;2.85;0.57;;;8.80;99.90;;;;;;4141018;28;20129;-66
2024/01/05 10:35:23;;;;;;;4.07;0.93;;;8.80;99.90;;;;;;4137963;28;20596;-65
2024/01/05 10:37:24;;;;;;;1.48;0.43;;;8.80;99.90;;;;;;4123197;28;20034;-66